Time;durP1;ratioP1;P1;durP2;ratioP2;P2;SDS_P1;SDS_P2;PMS_P1;PMS_P2;Temp;Humidity;BMP_temperature;BMP_pressure;BME280_temperature;BME280_humidity;BME280_pressure;Samples;Min_cycle;Max_cycle;Signal;HPM_P1;HPM_P2
2023/08/15 00:00:13;;;;;;;12.70;6.50;;;22.30;99.90;;;;;;2603127;54;21587;31
2023/08/15 00:02:48;;;;;;;7.68;5.75;;;22.20;99.90;;;;;;2603167;54;20879;31
2023/08/15 00:05:24;;;;;;;10.45;6.35;;;22.20;99.90;;;;;;2603071;54;20053;31
2023/08/15 00:08:09;;;;;;;11.60;5.53;;;22.20;99.90;;;;;;2603381;54;20022;31
2023/08/15 00:10:47;;;;;;;11.73;5.40;;;22.20;99.90;;;;;;2603132;54;20026;31
2023/08/15 00:13:21;;;;;;;10.52;5.63;;;22.10;99.90;;;;;;2603177;54;20019;31
2023/08/15 00:15:57;;;;;;;8.50;6.35;;;22.10;99.90;;;;;;2621693;47;20031;31
2023/08/15 00:18:33;;;;;;;9.07;5.27;;;22.10;99.90;;;;;;2621576;47;20033;31
2023/08/15 00:21:08;;;;;;;7.22;5.28;;;22.10;99.90;;;;;;2621517;47;20242;31
2023/08/15 00:23:43;;;;;;;7.17;4.50;;;22.00;99.90;;;;;;2603119;54;20092;31
2023/08/15 00:28:51;;;;;;;7.40;5.25;;;22.00;99.90;;;;;;2621217;47;20868;31
2023/08/15 00:31:27;;;;;;;8.32;5.40;;;22.00;99.90;;;;;;2602764;54;20026;31
2023/08/15 00:34:02;;;;;;;7.07;4.50;;;22.00;99.90;;;;;;2603022;54;20846;31
2023/08/15 00:36:37;;;;;;;6.70;4.40;;;22.00;99.90;;;;;;2603170;54;20567;31
2023/08/15 00:39:12;;;;;;;6.15;4.35;;;22.00;99.90;;;;;;2603199;54;20916;31
2023/08/15 00:41:47;;;;;;;9.23;5.20;;;22.10;99.90;;;;;;2701660;39;20833;31
2023/08/15 00:44:24;;;;;;;18.33;5.78;;;22.00;99.90;;;;;;2603017;54;20037;31
2023/08/15 00:47:00;;;;;;;8.45;6.28;;;22.00;99.90;;;;;;2602958;54;20026;31
2023/08/15 00:49:36;;;;;;;8.27;5.50;;;21.90;99.90;;;;;;2602886;54;20899;31
2023/08/15 00:52:11;;;;;;;7.00;4.93;;;21.80;99.90;;;;;;2621576;47;20034;31
2023/08/15 00:54:49;;;;;;;10.00;5.35;;;21.80;99.90;;;;;;2621303;47;20104;31
2023/08/15 00:57:25;;;;;;;6.38;5.40;;;21.70;99.90;;;;;;2602893;54;20046;31
2023/08/15 01:00:06;;;;;;;10.95;6.03;;;21.70;99.90;;;;;;2621171;47;20890;31
2023/08/15 01:02:42;;;;;;;14.05;5.10;;;21.60;99.90;;;;;;2603840;54;20027;31
2023/08/15 01:05:18;;;;;;;9.03;5.83;;;21.50;99.90;;;;;;2773644;31;25091;31
2023/08/15 01:07:54;;;;;;;7.25;5.47;;;21.50;99.90;;;;;;2622214;46;20050;31
2023/08/15 01:10:29;;;;;;;6.85;6.15;;;21.50;99.90;;;;;;2622361;46;20046;31
2023/08/15 01:13:08;;;;;;;9.35;5.30;;;21.40;99.90;;;;;;2622181;46;20038;31
2023/08/15 01:15:49;;;;;;;10.43;5.90;;;21.40;99.90;;;;;;2773725;31;20548;31
2023/08/15 01:18:26;;;;;;;7.10;5.35;;;21.40;99.90;;;;;;2702317;39;21643;31
2023/08/15 01:21:01;;;;;;;10.13;5.80;;;21.30;99.90;;;;;;2702343;39;20474;31
2023/08/15 01:23:45;;;;;;;7.43;5.15;;;21.30;99.90;;;;;;2603577;54;20062;31
2023/08/15 01:26:21;;;;;;;11.27;5.13;;;21.30;99.90;;;;;;2603731;54;20890;31
2023/08/15 01:28:56;;;;;;;7.22;5.38;;;21.20;99.90;;;;;;2603534;54;21386;31
2023/08/15 01:31:33;;;;;;;13.70;5.55;;;21.20;99.90;;;;;;2603725;54;20089;31
2023/08/15 01:34:12;;;;;;;9.23;4.90;;;21.20;99.90;;;;;;2702260;39;20541;31
2023/08/15 01:36:49;;;;;;;7.15;5.40;;;21.10;99.90;;;;;;2622564;46;20150;31
2023/08/15 01:39:28;;;;;;;10.38;5.70;;;21.10;99.90;;;;;;2622150;46;20057;31
2023/08/15 01:42:05;;;;;;;14.70;5.90;;;21.10;99.90;;;;;;2603638;54;20050;31
2023/08/15 01:44:40;;;;;;;;;;;21.10;99.90;;;;;;2603942;54;20880;31
2023/08/15 01:47:15;;;;;;;11.77;5.30;;;21.00;99.90;;;;;;2621953;46;20015;31
2023/08/15 01:49:48;;;;;;;10.25;5.72;;;21.00;99.90;;;;;;2619238;46;20019;31
2023/08/15 01:52:21;;;;;;;7.35;5.95;;;21.00;99.90;;;;;;2603597;54;20848;31
2023/08/15 01:54:59;;;;;;;8.40;5.57;;;21.00;99.90;;;;;;2603515;54;20034;31
2023/08/15 01:57:33;;;;;;;7.20;4.40;;;20.90;99.90;;;;;;2603451;54;20034;31
2023/08/15 02:00:12;;;;;;;6.60;5.47;;;20.90;99.90;;;;;;2702264;39;20493;31
2023/08/15 02:02:50;;;;;;;8.00;5.00;;;20.90;99.90;;;;;;2702218;39;20524;31
2023/08/15 02:05:26;;;;;;;6.65;5.20;;;20.90;99.90;;;;;;2603666;54;20878;31
2023/08/15 02:08:01;;;;;;;7.50;4.93;;;20.90;99.90;;;;;;2603478;54;20763;31
2023/08/15 02:10:39;;;;;;;8.60;5.40;;;21.00;99.90;;;;;;2607357;46;20108;31
2023/08/15 02:13:13;;;;;;;6.78;5.22;;;20.90;99.90;;;;;;2603249;54;20026;31
2023/08/15 02:15:48;;;;;;;8.50;5.00;;;20.90;99.90;;;;;;2603422;54;20148;31
2023/08/15 02:18:26;;;;;;;10.82;5.72;;;20.90;99.90;;;;;;2603666;54;20911;31
2023/08/15 02:21:01;;;;;;;7.80;4.95;;;20.90;99.90;;;;;;2603494;54;20033;31
2023/08/15 02:23:36;;;;;;;5.57;4.93;;;20.80;99.90;;;;;;2603148;54;20932;31
2023/08/15 02:26:14;;;;;;;7.60;4.97;;;20.80;99.90;;;;;;2621136;46;20027;31
2023/08/15 02:28:50;;;;;;;7.90;5.40;;;20.70;99.90;;;;;;2603439;54;20793;31
2023/08/15 02:31:29;;;;;;;11.00;5.28;;;20.60;99.90;;;;;;2603567;54;20053;31
2023/08/15 02:34:04;;;;;;;10.13;5.55;;;20.60;99.90;;;;;;2621191;46;20022;31
2023/08/15 02:36:39;;;;;;;6.72;5.53;;;20.50;99.90;;;;;;2603329;54;20622;31
2023/08/15 02:39:14;;;;;;;8.73;5.63;;;20.40;99.90;;;;;;2603545;54;20032;31
2023/08/15 02:41:51;;;;;;;9.40;5.90;;;20.40;99.90;;;;;;2603461;54;20897;31
2023/08/15 02:44:26;;;;;;;7.78;5.63;;;20.30;99.90;;;;;;2603598;54;20026;31
2023/08/15 02:47:05;;;;;;;8.95;5.50;;;20.20;99.90;;;;;;2603601;54;20029;31
2023/08/15 02:49:41;;;;;;;7.63;5.18;;;20.20;99.90;;;;;;2603275;54;20037;31
2023/08/15 02:52:16;;;;;;;8.98;5.55;;;20.20;99.90;;;;;;2621729;46;20144;31
2023/08/15 02:54:54;;;;;;;6.97;5.70;;;20.10;99.90;;;;;;2603503;54;21378;31
2023/08/15 02:57:34;;;;;;;12.38;5.95;;;20.10;99.90;;;;;;2603427;54;20046;31
2023/08/15 03:00:13;;;;;;;8.50;5.18;;;20.10;99.90;;;;;;2603430;54;20030;31
2023/08/15 03:02:47;;;;;;;5.77;4.80;;;20.10;99.90;;;;;;2621598;46;20203;31
2023/08/15 03:05:23;;;;;;;10.63;5.45;;;20.10;99.90;;;;;;2603427;54;20030;31
2023/08/15 03:07:58;;;;;;;8.38;4.95;;;20.00;99.90;;;;;;2603395;54;20047;31
2023/08/15 03:10:35;;;;;;;10.13;5.22;;;20.00;99.90;;;;;;2603405;54;20911;31
2023/08/15 03:13:15;;;;;;;8.70;4.93;;;20.10;99.90;;;;;;2603316;54;20026;31
2023/08/15 03:15:54;;;;;;;7.87;4.23;;;20.10;99.90;;;;;;2603179;54;20089;31
2023/08/15 03:18:30;;;;;;;8.43;4.70;;;20.10;99.90;;;;;;2701797;39;21644;31
2023/08/15 03:21:08;;;;;;;9.63;4.75;;;20.10;99.90;;;;;;2603218;54;20854;31
2023/08/15 03:23:42;;;;;;;5.00;4.50;;;20.20;99.90;;;;;;2603133;54;20103;31
2023/08/15 03:26:17;;;;;;;8.10;3.90;;;20.30;99.90;;;;;;2603059;54;20053;31
2023/08/15 03:28:56;;;;;;;10.68;4.85;;;20.30;99.90;;;;;;2603182;54;20052;31
2023/08/15 03:31:32;;;;;;;5.10;4.45;;;20.30;99.90;;;;;;2603125;54;19940;31
2023/08/15 03:34:08;;;;;;;5.50;4.93;;;20.30;99.90;;;;;;2603246;54;20828;31
2023/08/15 03:36:45;;;;;;;10.95;4.97;;;20.20;99.90;;;;;;2603292;54;20026;31
2023/08/15 03:39:20;;;;;;;11.40;5.50;;;20.20;99.90;;;;;;2603328;54;20938;31
2023/08/15 03:41:55;;;;;;;9.15;5.13;;;20.10;99.90;;;;;;2621416;46;20038;31
2023/08/15 03:44:32;;;;;;;7.00;5.18;;;20.10;99.90;;;;;;2603093;54;20030;31
2023/08/15 03:47:07;;;;;;;11.05;4.45;;;20.00;99.90;;;;;;2603301;54;20900;31
2023/08/15 03:49:45;;;;;;;;;;;20.00;99.90;;;;;;2621911;46;20022;31
2023/08/15 03:52:22;;;;;;;6.18;4.80;;;19.90;99.90;;;;;;2603112;54;19934;31
2023/08/15 03:54:58;;;;;;;6.50;4.32;;;19.90;99.90;;;;;;2603144;54;20857;31
2023/08/15 03:57:39;;;;;;;8.32;5.18;;;19.90;99.90;;;;;;2603137;54;20808;31
2023/08/15 04:00:21;;;;;;;9.43;4.60;;;19.80;99.90;;;;;;2621813;46;20056;31
2023/08/15 04:02:57;;;;;;;6.68;5.05;;;19.90;99.90;;;;;;2621778;46;20947;31
2023/08/15 04:05:35;;;;;;;8.05;5.35;;;19.80;99.90;;;;;;2621723;47;20026;31
2023/08/15 04:08:14;;;;;;;7.07;5.00;;;19.80;99.90;;;;;;2621603;47;20062;31
2023/08/15 04:10:49;;;;;;;12.77;5.82;;;19.80;99.90;;;;;;2602724;54;20049;31
2023/08/15 04:13:26;;;;;;;;;;;19.80;99.90;;;;;;2603242;54;20104;31
2023/08/15 04:16:09;;;;;;;6.20;4.85;;;19.80;99.90;;;;;;2602990;54;20790;31
2023/08/15 04:18:46;;;;;;;8.10;5.43;;;19.80;99.90;;;;;;2603353;54;20030;31
2023/08/15 04:21:21;;;;;;;7.28;5.15;;;19.80;99.90;;;;;;2602917;54;20328;31
2023/08/15 04:24:02;;;;;;;8.55;5.28;;;19.80;99.90;;;;;;2603258;54;20030;31
2023/08/15 04:26:40;;;;;;;11.10;4.95;;;19.90;99.90;;;;;;2603305;54;20838;31
2023/08/15 04:29:20;;;;;;;7.75;5.32;;;19.80;99.90;;;;;;2603089;54;20022;31
2023/08/15 04:32:01;;;;;;;7.57;5.60;;;19.80;99.90;;;;;;2603188;54;20573;31
2023/08/15 04:34:43;;;;;;;7.40;4.60;;;19.90;99.90;;;;;;2602952;54;20843;31
2023/08/15 04:37:19;;;;;;;8.80;5.53;;;20.00;99.90;;;;;;2603335;54;20122;31
2023/08/15 04:39:56;;;;;;;11.25;4.95;;;20.10;99.90;;;;;;2603812;54;20077;31
2023/08/15 04:42:36;;;;;;;8.15;4.78;;;20.30;99.90;;;;;;2603890;54;24155;31
2023/08/15 04:45:24;;;;;;;6.65;4.95;;;20.50;99.90;;;;;;2702436;39;20539;31
2023/08/15 04:48:05;;;;;;;8.48;5.03;;;20.70;99.90;;;;;;2604041;54;20031;31
2023/08/15 04:50:45;;;;;;;6.65;4.65;;;20.90;99.90;;;;;;2603792;54;20782;31
2023/08/15 04:53:20;;;;;;;8.13;4.55;;;21.10;99.90;;;;;;2702634;39;20996;31
2023/08/15 04:55:58;;;;;;;7.88;4.57;;;21.20;99.90;;;;;;2607860;46;20960;31
2023/08/15 04:58:34;;;;;;;7.00;4.45;;;21.40;99.90;;;;;;2701511;39;20421;31
2023/08/15 05:01:11;;;;;;;8.30;4.75;;;21.60;99.90;;;;;;2622226;46;20026;31
2023/08/15 05:03:59;;;;;;;6.30;4.50;;;21.80;99.90;;;;;;2622200;46;20921;31
2023/08/15 05:06:38;;;;;;;6.10;4.80;;;22.00;99.90;;;;;;2603722;54;20026;31
2023/08/15 05:09:14;;;;;;;7.20;4.85;;;22.20;99.90;;;;;;2603971;54;20026;31
2023/08/15 05:11:50;;;;;;;5.95;4.70;;;22.50;99.90;;;;;;2603955;54;20885;31
2023/08/15 05:14:29;;;;;;;7.00;4.65;;;22.70;99.90;;;;;;2603466;54;20092;31
2023/08/15 05:17:08;;;;;;;4.37;3.57;;;23.00;99.90;;;;;;2603917;54;20047;31
2023/08/15 05:19:48;;;;;;;7.27;4.50;;;23.30;99.90;;;;;;2602991;54;20030;31
2023/08/15 05:22:29;;;;;;;7.57;4.20;;;23.60;99.90;;;;;;2622595;46;20888;31
2023/08/15 05:25:05;;;;;;;6.25;4.43;;;23.80;99.90;;;;;;2603186;54;21326;31
2023/08/15 05:27:55;;;;;;;4.65;3.97;;;23.90;99.90;;;;;;2602793;54;20046;31
2023/08/15 05:30:35;;;;;;;5.20;4.35;;;24.10;99.90;;;;;;2603008;54;20048;31
2023/08/15 05:33:13;;;;;;;4.70;3.83;;;24.20;99.90;;;;;;2603862;54;20072;31
2023/08/15 05:35:53;;;;;;;5.35;4.03;;;24.40;99.90;;;;;;2603854;54;20027;31
2023/08/15 05:38:33;;;;;;;6.07;4.82;;;24.70;99.90;;;;;;2701914;39;21641;31
2023/08/15 05:41:09;;;;;;;6.13;4.20;;;24.90;99.90;;;;;;2603810;54;20048;31
2023/08/15 05:43:47;;;;;;;4.78;4.35;;;25.00;99.90;;;;;;2603575;54;20023;31
2023/08/15 05:46:25;;;;;;;5.72;4.00;;;25.10;99.90;;;;;;2603340;54;20034;31
2023/08/15 05:49:03;;;;;;;7.72;4.63;;;25.10;99.90;;;;;;2603309;54;20100;31
2023/08/15 05:51:44;;;;;;;7.30;3.88;;;25.10;99.90;;;;;;2621415;46;20138;31
2023/08/15 05:54:26;;;;;;;10.80;4.00;;;25.30;99.90;;;;;;2602460;54;20043;31
2023/08/15 05:57:03;;;;;;;7.55;4.13;;;25.50;99.90;;;;;;2602636;54;20046;31
2023/08/15 05:59:41;;;;;;;5.70;4.05;;;25.50;99.90;;;;;;2602407;54;20585;31
2023/08/15 06:02:19;;;;;;;6.38;4.03;;;25.60;99.90;;;;;;2621807;46;20053;31
2023/08/15 06:04:57;;;;;;;5.75;4.07;;;25.80;99.90;;;;;;2603559;54;20029;31
2023/08/15 06:07:38;;;;;;;6.60;3.95;;;25.90;99.90;;;;;;2701843;39;21643;31
2023/08/15 06:10:16;;;;;;;6.00;3.80;;;26.10;99.90;;;;;;2603622;54;20849;31
2023/08/15 06:12:53;;;;;;;5.97;3.78;;;26.40;99.90;;;;;;2603639;54;20031;31
2023/08/15 06:15:28;;;;;;;5.10;3.65;;;26.70;99.90;;;;;;2622223;46;20038;31
2023/08/15 06:18:04;;;;;;;5.38;3.90;;;26.90;99.90;;;;;;2621555;46;20918;31
2023/08/15 06:20:40;;;;;;;;;;;27.20;99.90;;;;;;2702144;39;20539;31
2023/08/15 06:23:20;;;;;;;6.80;3.38;;;27.40;99.90;;;;;;2603406;54;20794;31
2023/08/15 06:25:57;;;;;;;6.20;3.40;;;27.60;99.90;;;;;;2621899;46;20031;31
2023/08/15 06:28:38;;;;;;;5.80;3.60;;;27.80;99.90;;;;;;2603270;54;20022;31
2023/08/15 06:31:16;;;;;;;6.30;3.38;;;28.00;99.90;;;;;;2603406;54;20054;31
2023/08/15 06:33:58;;;;;;;5.93;3.92;;;28.20;99.90;;;;;;2622109;46;20052;31
2023/08/15 06:36:32;;;;;;;4.95;3.80;;;28.20;99.90;;;;;;2603514;54;20827;31
2023/08/15 06:39:12;;;;;;;7.63;3.65;;;28.40;99.90;;;;;;2701801;39;21567;31
2023/08/15 06:41:49;;;;;;;5.25;3.40;;;28.60;99.90;;;;;;2603356;54;20069;31
2023/08/15 06:44:32;;;;;;;6.40;3.00;;;28.80;99.90;;;;;;2702079;39;21476;31
2023/08/15 06:47:24;;;;;;;7.30;3.17;;;28.90;99.90;;;;;;2621828;46;20075;31
2023/08/15 06:50:01;;;;;;;6.25;3.67;;;29.10;99.90;;;;;;2603519;54;20902;31
2023/08/15 06:52:45;;;;;;;6.40;3.47;;;29.40;99.90;;;;;;2603410;54;20022;31
2023/08/15 06:55:37;;;;;;;4.75;3.67;;;29.40;99.90;;;;;;2720617;39;21536;31
2023/08/15 06:58:12;;;;;;;4.80;2.83;;;29.50;99.90;;;;;;2603390;54;20030;31
2023/08/15 07:00:50;;;;;;;5.30;3.53;;;29.50;99.90;;;;;;2701892;39;21608;31
2023/08/15 07:03:26;;;;;;;4.47;3.38;;;29.70;99.90;;;;;;2603235;54;20900;31
2023/08/15 07:06:03;;;;;;;4.78;3.40;;;29.70;99.90;;;;;;2603334;54;21622;31
2023/08/15 07:08:40;;;;;;;8.20;3.28;;;29.90;99.90;;;;;;2603422;54;20029;31
2023/08/15 07:11:23;;;;;;;5.93;4.18;;;29.80;99.90;;;;;;2622108;46;21696;31
2023/08/15 07:14:04;;;;;;;8.77;3.85;;;29.90;99.90;;;;;;2621658;46;20034;31
2023/08/15 07:19:15;;;;;;;4.77;3.30;;;30.00;99.90;;;;;;2621478;46;20896;31
2023/08/15 07:21:55;;;;;;;6.30;3.35;;;30.20;99.90;;;;;;2701138;39;21362;31
2023/08/15 07:24:33;;;;;;;3.22;2.92;;;30.20;99.90;;;;;;2602525;54;20027;31
2023/08/15 07:27:16;;;;;;;3.90;3.10;;;30.40;99.90;;;;;;2603300;54;20035;31
2023/08/15 07:29:55;;;;;;;5.47;2.80;;;30.60;99.90;;;;;;2603496;54;20948;31
2023/08/15 07:32:39;;;;;;;3.60;2.75;;;31.00;99.90;;;;;;2603213;54;20033;31
2023/08/15 07:37:48;;;;;;;4.60;3.10;;;31.50;99.90;;;;;;2621965;46;20022;31
2023/08/15 07:40:24;;;;;;;6.22;2.88;;;31.70;99.90;;;;;;2603192;54;20817;31
2023/08/15 07:43:06;;;;;;;5.35;2.70;;;31.90;99.90;;;;;;2602493;54;20934;31
2023/08/15 07:45:43;;;;;;;5.07;2.67;;;31.90;99.90;;;;;;2602104;54;20086;31
2023/08/15 07:48:25;;;;;;;3.10;2.75;;;32.00;99.90;;;;;;2615599;46;20031;31
2023/08/15 07:51:01;;;;;;;6.13;2.85;;;32.10;99.90;;;;;;2603168;54;20525;31
2023/08/15 07:53:46;;;;;;;5.53;2.80;;;32.20;99.90;;;;;;2603356;54;20833;31
2023/08/15 07:56:25;;;;;;;3.70;2.55;;;32.00;99.90;;;;;;2603131;54;20805;31
2023/08/15 07:59:02;;;;;;;4.85;2.70;;;32.10;99.90;;;;;;2621391;46;20720;31
2023/08/15 08:01:46;;;;;;;7.63;2.90;;;32.20;99.90;;;;;;2621949;46;20079;31
2023/08/15 08:04:24;;;;;;;7.05;2.50;;;32.20;99.90;;;;;;2603204;54;20023;31
2023/08/15 08:07:05;;;;;;;3.20;2.40;;;32.30;99.20;;;;;;2607557;47;20119;31
2023/08/15 08:09:48;;;;;;;2.97;2.30;;;32.30;99.00;;;;;;2602384;54;20034;31
2023/08/15 08:12:25;;;;;;;3.97;2.55;;;32.30;98.60;;;;;;2603783;54;20030;31
2023/08/15 08:15:01;;;;;;;3.70;2.80;;;32.20;99.00;;;;;;2604072;54;20558;31
2023/08/15 08:17:40;;;;;;;;;;;32.20;99.00;;;;;;2604104;54;20966;31
2023/08/15 08:20:19;;;;;;;10.57;2.95;;;32.30;99.40;;;;;;2622339;46;19935;31
2023/08/15 08:23:00;;;;;;;5.80;2.90;;;32.50;99.40;;;;;;2604000;54;20026;31
2023/08/15 08:25:38;;;;;;;4.70;2.50;;;32.70;98.10;;;;;;2603065;54;20097;31
2023/08/15 08:28:21;;;;;;;2.97;2.30;;;32.70;97.60;;;;;;2603998;54;20022;31
2023/08/15 08:30:59;;;;;;;4.05;2.83;;;32.80;97.70;;;;;;2603093;54;20813;31
2023/08/15 08:33:43;;;;;;;4.10;2.60;;;32.90;97.60;;;;;;2615467;46;20034;31
2023/08/15 08:36:21;;;;;;;3.45;2.60;;;32.90;96.90;;;;;;2603863;54;20843;31
2023/08/15 08:39:00;;;;;;;4.70;2.70;;;33.10;96.70;;;;;;2603776;54;20585;31
2023/08/15 08:41:37;;;;;;;4.18;2.63;;;33.20;96.80;;;;;;2603816;54;20152;31
2023/08/15 08:44:15;;;;;;;6.55;2.65;;;33.50;96.80;;;;;;2603937;54;20034;31
2023/08/15 08:46:53;;;;;;;4.93;2.67;;;33.40;95.60;;;;;;2621935;46;20886;31
2023/08/15 08:49:35;;;;;;;4.03;2.67;;;33.40;95.20;;;;;;2622052;46;20067;31
2023/08/15 08:52:08;;;;;;;4.82;2.40;;;33.30;95.50;;;;;;2624725;46;20638;31
2023/08/15 08:54:47;;;;;;;4.85;2.92;;;33.20;94.80;;;;;;2617758;46;20074;31
2023/08/15 08:57:32;;;;;;;4.13;2.42;;;33.20;95.20;;;;;;2604369;54;20026;31
2023/08/15 09:00:11;;;;;;;5.50;2.70;;;33.00;95.00;;;;;;2603510;54;20015;31
2023/08/15 09:02:50;;;;;;;3.40;2.78;;;33.10;94.70;;;;;;2603615;54;20915;31
2023/08/15 09:05:30;;;;;;;5.35;2.60;;;33.00;93.90;;;;;;2603649;54;20848;31
2023/08/15 09:08:06;;;;;;;4.22;2.53;;;33.00;94.30;;;;;;2603782;54;20019;31
2023/08/15 09:10:47;;;;;;;4.38;2.65;;;33.10;94.50;;;;;;2603829;54;21786;31
2023/08/15 09:13:25;;;;;;;5.30;2.60;;;33.30;94.10;;;;;;2622110;46;20081;31
2023/08/15 09:16:16;;;;;;;3.47;2.55;;;33.30;92.90;;;;;;2603930;54;20082;31
2023/08/15 09:18:59;;;;;;;4.45;2.50;;;33.40;93.10;;;;;;2603705;54;20940;31
2023/08/15 09:21:41;;;;;;;6.75;2.75;;;33.50;92.30;;;;;;2603918;54;20033;31
2023/08/15 09:24:16;;;;;;;2.70;2.30;;;33.60;91.90;;;;;;2603619;54;20030;31
2023/08/15 09:26:52;;;;;;;6.63;2.38;;;33.70;92.50;;;;;;2603527;54;20042;31
2023/08/15 09:29:28;;;;;;;5.70;2.65;;;33.80;92.10;;;;;;2603804;54;20025;31
2023/08/15 09:32:05;;;;;;;5.47;2.67;;;33.90;91.20;;;;;;2603866;54;20022;31
2023/08/15 09:34:41;;;;;;;4.05;2.70;;;33.90;91.10;;;;;;2603251;54;20048;31
2023/08/15 09:37:24;;;;;;;5.10;2.42;;;33.90;90.90;;;;;;2602509;54;20577;31
2023/08/15 09:40:00;;;;;;;5.10;2.57;;;34.00;91.60;;;;;;2602940;54;20046;31
2023/08/15 09:42:36;;;;;;;6.10;2.55;;;34.00;91.30;;;;;;2621431;46;20864;31
2023/08/15 09:45:12;;;;;;;4.43;2.00;;;34.00;90.00;;;;;;2603686;54;20827;31
2023/08/15 09:47:48;;;;;;;3.60;2.30;;;34.00;90.60;;;;;;2603737;54;20035;31
2023/08/15 09:50:23;;;;;;;3.55;2.75;;;33.90;90.30;;;;;;2603547;54;21192;31
2023/08/15 09:53:05;;;;;;;3.65;2.63;;;33.90;90.30;;;;;;2702288;39;20466;31
2023/08/15 09:55:45;;;;;;;7.75;2.85;;;33.90;90.50;;;;;;2604028;46;20018;31
2023/08/15 09:58:22;;;;;;;4.68;2.55;;;33.90;90.00;;;;;;2603823;54;20026;31
2023/08/15 10:01:02;;;;;;;6.07;2.75;;;33.90;90.90;;;;;;2702235;39;20509;31
2023/08/15 10:03:38;;;;;;;4.50;2.95;;;33.90;89.60;;;;;;2602934;54;20031;31
2023/08/15 10:06:14;;;;;;;7.82;2.75;;;33.90;88.80;;;;;;2602612;54;20982;31
2023/08/15 10:08:54;;;;;;;2.97;2.40;;;33.80;90.40;;;;;;2604186;46;21314;31
2023/08/15 10:11:32;;;;;;;4.82;2.70;;;33.80;90.40;;;;;;2603502;54;20042;31
2023/08/15 10:14:09;;;;;;;4.20;2.50;;;34.00;90.50;;;;;;2603696;54;20037;31
2023/08/15 10:16:44;;;;;;;3.40;2.40;;;34.00;89.40;;;;;;2701263;39;21456;31
2023/08/15 10:19:20;;;;;;;3.00;2.70;;;33.90;90.00;;;;;;2602833;54;20019;31
2023/08/15 10:21:58;;;;;;;3.90;2.55;;;33.90;90.10;;;;;;2602637;54;20031;31
2023/08/15 10:24:38;;;;;;;4.63;2.70;;;33.80;90.20;;;;;;2608545;46;20092;31
2023/08/15 10:27:13;;;;;;;6.18;2.78;;;33.80;90.40;;;;;;2603737;54;20085;31
2023/08/15 10:29:59;;;;;;;6.28;2.60;;;33.70;90.00;;;;;;2602815;54;20959;31
2023/08/15 10:32:35;;;;;;;3.35;2.80;;;33.70;90.30;;;;;;2602578;54;20034;31
2023/08/15 10:35:12;;;;;;;5.95;2.50;;;33.70;90.20;;;;;;2602421;54;20773;31
2023/08/15 10:37:53;;;;;;;5.55;2.75;;;33.90;90.60;;;;;;2603465;54;21464;31
2023/08/15 10:40:28;;;;;;;2.50;2.30;;;33.90;90.50;;;;;;2701740;39;21478;31
2023/08/15 10:43:15;;;;;;;2.70;2.38;;;33.90;90.60;;;;;;2603328;54;20820;31
2023/08/15 10:45:53;;;;;;;4.80;2.60;;;33.90;90.40;;;;;;2603560;54;20957;31
2023/08/15 10:48:45;;;;;;;2.70;2.50;;;33.90;90.30;;;;;;2603535;54;20018;31
2023/08/15 10:51:38;;;;;;;5.78;2.72;;;33.90;90.60;;;;;;2603234;54;20038;31
2023/08/15 10:54:18;;;;;;;7.75;2.67;;;33.90;90.20;;;;;;2621638;46;20030;31
2023/08/15 10:56:53;;;;;;;4.50;2.63;;;33.90;89.50;;;;;;2603280;54;20023;31
2023/08/15 10:59:34;;;;;;;7.80;2.45;;;34.00;89.40;;;;;;2603026;54;20928;31
2023/08/15 11:04:41;;;;;;;3.15;2.47;;;33.90;88.60;;;;;;2603627;54;20925;31
2023/08/15 11:07:27;;;;;;;4.40;2.47;;;34.00;89.70;;;;;;2603459;54;21355;31
2023/08/15 11:10:04;;;;;;;4.72;2.85;;;34.00;88.90;;;;;;2603636;54;20034;31
2023/08/15 11:12:39;;;;;;;3.00;2.33;;;34.20;89.50;;;;;;2603382;54;20030;31
2023/08/15 11:15:19;;;;;;;3.05;2.28;;;34.20;88.10;;;;;;2603298;54;20018;31
2023/08/15 11:17:56;;;;;;;3.45;2.63;;;34.20;88.10;;;;;;2603478;54;20038;31
2023/08/15 11:20:32;;;;;;;4.00;2.58;;;34.10;88.20;;;;;;2603213;54;20940;31
2023/08/15 11:23:05;;;;;;;4.57;2.70;;;34.20;89.30;;;;;;2603409;54;20728;31
2023/08/15 11:25:41;;;;;;;4.65;2.80;;;34.20;88.90;;;;;;2603081;54;20899;31
2023/08/15 11:28:17;;;;;;;4.85;2.50;;;34.10;87.20;;;;;;2603283;54;20810;31
2023/08/15 11:30:55;;;;;;;3.92;2.50;;;34.10;89.00;;;;;;2603330;54;20825;31
2023/08/15 11:33:41;;;;;;;4.88;2.35;;;34.10;88.00;;;;;;2603363;54;20022;31
2023/08/15 11:36:17;;;;;;;3.45;2.50;;;34.10;87.20;;;;;;2621677;46;20026;31
2023/08/15 11:38:56;;;;;;;5.10;2.38;;;33.90;85.40;;;;;;2603484;54;20100;31
2023/08/15 11:41:31;;;;;;;5.73;2.27;;;33.90;85.40;;;;;;2603105;54;20042;31
2023/08/15 11:44:13;;;;;;;2.92;2.25;;;33.90;86.70;;;;;;2603148;54;20079;31
2023/08/15 11:46:51;;;;;;;2.97;2.20;;;33.80;86.50;;;;;;2602886;54;20053;31
2023/08/15 11:49:33;;;;;;;3.50;2.50;;;33.80;88.60;;;;;;2608176;46;20022;31
2023/08/15 11:52:20;;;;;;;4.60;2.22;;;33.80;87.00;;;;;;2612750;46;20250;31
2023/08/15 11:54:58;;;;;;;5.18;2.40;;;33.80;85.20;;;;;;2603156;54;20124;31
2023/08/15 11:57:31;;;;;;;3.55;2.25;;;33.80;85.90;;;;;;2603157;54;20536;31
2023/08/15 12:00:12;;;;;;;2.30;2.00;;;33.80;86.10;;;;;;2622060;46;20030;31
2023/08/15 12:02:56;;;;;;;2.90;2.00;;;33.60;83.70;;;;;;2622121;46;20890;31
2023/08/15 12:05:36;;;;;;;3.50;2.00;;;33.60;84.80;;;;;;2603449;54;20042;31
2023/08/15 12:08:12;;;;;;;2.90;2.25;;;33.60;81.80;;;;;;2604043;47;20081;31
2023/08/15 12:10:49;;;;;;;3.78;1.88;;;33.50;80.90;;;;;;2603103;54;20030;31
2023/08/15 12:13:37;;;;;;;6.63;2.00;;;33.60;83.00;;;;;;2603239;54;20093;31
2023/08/15 12:16:25;;;;;;;5.95;2.15;;;33.50;81.90;;;;;;2602898;54;20862;31
2023/08/15 12:19:05;;;;;;;3.50;2.40;;;33.50;82.00;;;;;;2621844;47;19935;31
2023/08/15 12:21:47;;;;;;;3.55;2.20;;;33.50;83.30;;;;;;2621821;47;20871;31
2023/08/15 12:24:23;;;;;;;3.70;2.10;;;33.50;82.90;;;;;;2603101;54;20031;31
2023/08/15 12:27:01;;;;;;;5.10;2.10;;;33.50;81.80;;;;;;2621212;47;20924;31
2023/08/15 12:29:41;;;;;;;3.53;2.13;;;33.50;81.70;;;;;;2603093;54;20085;31
2023/08/15 12:32:38;;;;;;;4.20;2.20;;;33.60;82.90;;;;;;2603275;54;20841;31
2023/08/15 12:35:17;;;;;;;2.67;2.08;;;33.50;82.00;;;;;;2603058;54;20034;31
2023/08/15 12:37:53;;;;;;;9.95;2.60;;;33.40;81.70;;;;;;2603370;54;20889;31
2023/08/15 12:40:32;;;;;;;4.35;2.20;;;33.40;83.60;;;;;;2603129;54;20016;31
2023/08/15 12:43:09;;;;;;;4.43;2.63;;;33.50;83.00;;;;;;2603119;54;20135;31
2023/08/15 12:45:48;;;;;;;3.65;2.20;;;33.50;85.20;;;;;;2603536;47;20557;31
2023/08/15 12:48:24;;;;;;;4.68;2.10;;;33.50;82.40;;;;;;2602769;54;20924;31
2023/08/15 12:51:05;;;;;;;5.20;2.60;;;33.50;82.90;;;;;;2602817;54;20520;31
2023/08/15 12:53:41;;;;;;;4.82;2.67;;;33.40;83.40;;;;;;2603222;54;20027;31
2023/08/15 12:56:17;;;;;;;3.17;2.20;;;33.40;83.30;;;;;;2602158;54;20034;31
2023/08/15 12:58:54;;;;;;;3.25;2.45;;;33.40;82.90;;;;;;2603285;54;20042;31
2023/08/15 13:01:31;;;;;;;3.45;2.00;;;33.30;82.90;;;;;;2603441;54;20037;31
2023/08/15 13:04:11;;;;;;;5.10;2.20;;;33.30;83.60;;;;;;2603140;54;20866;31
2023/08/15 13:06:50;;;;;;;3.33;2.00;;;33.30;83.50;;;;;;2605506;46;20097;31
2023/08/15 13:09:28;;;;;;;4.10;2.15;;;33.30;82.40;;;;;;2603936;54;20242;31
2023/08/15 13:12:04;;;;;;;5.60;2.45;;;33.20;82.00;;;;;;2622311;46;20533;31
2023/08/15 13:14:44;;;;;;;5.85;2.33;;;33.20;84.80;;;;;;2603971;54;20052;31
2023/08/15 13:17:23;;;;;;;7.00;2.40;;;33.30;85.50;;;;;;2603751;54;20018;31
2023/08/15 13:19:59;;;;;;;4.85;2.05;;;33.30;85.00;;;;;;2603655;54;20027;31
2023/08/15 13:22:37;;;;;;;4.95;2.25;;;33.40;85.40;;;;;;2603709;54;20053;31
2023/08/15 13:25:19;;;;;;;4.32;2.28;;;33.40;84.70;;;;;;2603676;54;20212;31
2023/08/15 13:27:54;;;;;;;4.00;2.50;;;33.40;84.70;;;;;;2603721;54;20029;31
2023/08/15 13:30:30;;;;;;;4.53;2.17;;;33.40;84.50;;;;;;2603746;54;20494;31
2023/08/15 13:33:08;;;;;;;4.50;2.38;;;33.40;85.80;;;;;;2622347;46;21599;31
2023/08/15 13:35:47;;;;;;;3.83;2.40;;;33.40;85.90;;;;;;2602997;54;20052;31
2023/08/15 13:38:27;;;;;;;3.93;2.57;;;33.40;86.00;;;;;;2603805;54;20022;31
2023/08/15 13:41:08;;;;;;;5.47;2.55;;;33.40;85.20;;;;;;2603509;54;21090;31
2023/08/15 13:43:44;;;;;;;4.85;2.78;;;33.30;84.90;;;;;;2603559;54;20930;31
2023/08/15 13:46:19;;;;;;;4.63;2.17;;;33.40;85.70;;;;;;2622314;46;20044;31
2023/08/15 13:48:55;;;;;;;4.40;2.20;;;33.40;85.30;;;;;;2711680;39;20421;31
2023/08/15 13:51:33;;;;;;;2.33;1.95;;;33.40;84.50;;;;;;2603567;54;20365;31
2023/08/15 13:54:14;;;;;;;3.30;2.00;;;33.40;84.90;;;;;;2603573;54;20795;31
2023/08/15 13:56:49;;;;;;;5.30;2.15;;;33.50;82.00;;;;;;2709485;39;20348;31
2023/08/15 13:59:28;;;;;;;3.05;1.88;;;33.50;82.00;;;;;;2720737;39;21475;31
2023/08/15 14:02:11;;;;;;;3.13;2.05;;;33.50;82.00;;;;;;2603454;54;20022;31
2023/08/15 14:04:48;;;;;;;2.63;2.08;;;33.40;82.90;;;;;;2603462;54;20104;31